sensor_id;sensor_type;location;lat;lon;timestamp;pressure;altitude;pressure_sealevel;temperature
45850;BMP180;10739;52.198;20.908;2023-06-14T00:01:07;100476.00;;;16.20
45850;BMP180;10739;52.198;20.908;2023-06-14T00:03:35;100476.00;;;16.20
45850;BMP180;10739;52.198;20.908;2023-06-14T00:06:01;100476.00;;;16.10
45850;BMP180;10739;52.198;20.908;2023-06-14T00:08:27;100481.00;;;16.10
45850;BMP180;10739;52.198;20.908;2023-06-14T00:10:54;100474.00;;;16.20
45850;BMP180;10739;52.198;20.908;2023-06-14T00:13:20;100475.00;;;16.20
45850;BMP180;10739;52.198;20.908;2023-06-14T00:15:47;100473.00;;;16.00
45850;BMP180;10739;52.198;20.908;2023-06-14T00:18:13;100466.00;;;15.90
45850;BMP180;10739;52.198;20.908;2023-06-14T00:20:40;100459.00;;;15.90
45850;BMP180;10739;52.198;20.908;2023-06-14T00:23:07;100458.00;;;15.90
45850;BMP180;10739;52.198;20.908;2023-06-14T00:25:34;100466.00;;;15.90
45850;BMP180;10739;52.198;20.908;2023-06-14T00:28:01;100462.00;;;16.00
45850;BMP180;10739;52.198;20.908;2023-06-14T00:30:28;100468.00;;;16.00
45850;BMP180;10739;52.198;20.908;2023-06-14T00:32:56;100457.00;;;15.90
45850;BMP180;10739;52.198;20.908;2023-06-14T00:35:23;100457.00;;;16.10
45850;BMP180;10739;52.198;20.908;2023-06-14T00:37:50;100456.00;;;16.10
45850;BMP180;10739;52.198;20.908;2023-06-14T00:40:16;100456.00;;;16.00
45850;BMP180;10739;52.198;20.908;2023-06-14T00:42:42;100454.00;;;16.10
45850;BMP180;10739;52.198;20.908;2023-06-14T00:45:09;100457.00;;;16.00
45850;BMP180;10739;52.198;20.908;2023-06-14T00:47:38;100459.00;;;16.10
45850;BMP180;10739;52.198;20.908;2023-06-14T00:50:07;100459.00;;;16.10
45850;BMP180;10739;52.198;20.908;2023-06-14T00:52:35;100448.00;;;16.10
45850;BMP180;10739;52.198;20.908;2023-06-14T00:55:02;100450.00;;;16.10
45850;BMP180;10739;52.198;20.908;2023-06-14T00:57:29;100453.00;;;16.00
45850;BMP180;10739;52.198;20.908;2023-06-14T00:59:56;100452.00;;;16.00
45850;BMP180;10739;52.198;20.908;2023-06-14T01:02:22;100449.00;;;16.00
45850;BMP180;10739;52.198;20.908;2023-06-14T01:04:51;100456.00;;;16.00
45850;BMP180;10739;52.198;20.908;2023-06-14T01:11:15;100460.00;;;15.90
45850;BMP180;10739;52.198;20.908;2023-06-14T01:13:46;100458.00;;;16.10
45850;BMP180;10739;52.198;20.908;2023-06-14T01:16:14;100454.00;;;16.00
45850;BMP180;10739;52.198;20.908;2023-06-14T01:18:41;100459.00;;;16.10
45850;BMP180;10739;52.198;20.908;2023-06-14T01:21:21;100458.00;;;16.00
45850;BMP180;10739;52.198;20.908;2023-06-14T01:23:48;100458.00;;;16.00
45850;BMP180;10739;52.198;20.908;2023-06-14T01:26:22;100466.00;;;16.10
45850;BMP180;10739;52.198;20.908;2023-06-14T01:28:50;100461.00;;;16.00
45850;BMP180;10739;52.198;20.908;2023-06-14T01:31:20;100461.00;;;16.00
45850;BMP180;10739;52.198;20.908;2023-06-14T01:33:49;100454.00;;;15.90
45850;BMP180;10739;52.198;20.908;2023-06-14T01:36:19;100457.00;;;16.10
45850;BMP180;10739;52.198;20.908;2023-06-14T01:38:48;100455.00;;;16.10
45850;BMP180;10739;52.198;20.908;2023-06-14T01:41:18;100455.00;;;16.10
45850;BMP180;10739;52.198;20.908;2023-06-14T01:43:47;100450.00;;;16.10
45850;BMP180;10739;52.198;20.908;2023-06-14T01:46:15;100451.00;;;16.10
45850;BMP180;10739;52.198;20.908;2023-06-14T01:48:43;100441.00;;;16.20
45850;BMP180;10739;52.198;20.908;2023-06-14T01:51:09;100445.00;;;16.10
45850;BMP180;10739;52.198;20.908;2023-06-14T01:53:35;100439.00;;;16.10
45850;BMP180;10739;52.198;20.908;2023-06-14T01:56:02;100445.00;;;16.20
45850;BMP180;10739;52.198;20.908;2023-06-14T01:58:29;100453.00;;;16.20
45850;BMP180;10739;52.198;20.908;2023-06-14T02:00:55;100447.00;;;16.20
45850;BMP180;10739;52.198;20.908;2023-06-14T02:03:22;100442.00;;;16.10
45850;BMP180;10739;52.198;20.908;2023-06-14T02:05:49;100437.00;;;16.10
45850;BMP180;10739;52.198;20.908;2023-06-14T02:08:15;100431.00;;;16.20
45850;BMP180;10739;52.198;20.908;2023-06-14T02:10:42;100428.00;;;16.10
45850;BMP180;10739;52.198;20.908;2023-06-14T02:13:08;100429.00;;;16.00
45850;BMP180;10739;52.198;20.908;2023-06-14T02:15:34;100428.00;;;16.10
45850;BMP180;10739;52.198;20.908;2023-06-14T02:18:04;100428.00;;;16.10
45850;BMP180;10739;52.198;20.908;2023-06-14T02:20:31;100429.00;;;16.20
45850;BMP180;10739;52.198;20.908;2023-06-14T02:22:57;100436.00;;;16.10
45850;BMP180;10739;52.198;20.908;2023-06-14T02:25:24;100437.00;;;16.10
45850;BMP180;10739;52.198;20.908;2023-06-14T02:27:51;100436.00;;;16.10
45850;BMP180;10739;52.198;20.908;2023-06-14T02:30:17;100424.00;;;16.10
45850;BMP180;10739;52.198;20.908;2023-06-14T02:32:43;100431.00;;;16.20
45850;BMP180;10739;52.198;20.908;2023-06-14T02:35:09;100443.00;;;16.10
45850;BMP180;10739;52.198;20.908;2023-06-14T02:37:36;100445.00;;;16.20
45850;BMP180;10739;52.198;20.908;2023-06-14T02:40:03;100436.00;;;16.10
45850;BMP180;10739;52.198;20.908;2023-06-14T02:42:29;100431.00;;;16.30
45850;BMP180;10739;52.198;20.908;2023-06-14T02:44:56;100431.00;;;16.30
45850;BMP180;10739;52.198;20.908;2023-06-14T02:47:22;100428.00;;;16.30
45850;BMP180;10739;52.198;20.908;2023-06-14T02:49:49;100422.00;;;16.30
45850;BMP180;10739;52.198;20.908;2023-06-14T02:52:16;100424.00;;;16.30
45850;BMP180;10739;52.198;20.908;2023-06-14T02:54:42;100426.00;;;16.30
45850;BMP180;10739;52.198;20.908;2023-06-14T02:57:08;100427.00;;;16.30
45850;BMP180;10739;52.198;20.908;2023-06-14T02:59:35;100425.00;;;16.30
45850;BMP180;10739;52.198;20.908;2023-06-14T03:02:01;100412.00;;;16.30
45850;BMP180;10739;52.198;20.908;2023-06-14T03:04:27;100411.00;;;16.20
45850;BMP180;10739;52.198;20.908;2023-06-14T03:06:55;100411.00;;;16.30
45850;BMP180;10739;52.198;20.908;2023-06-14T03:09:22;100412.00;;;16.40
45850;BMP180;10739;52.198;20.908;2023-06-14T03:11:48;100408.00;;;16.40
45850;BMP180;10739;52.198;20.908;2023-06-14T03:14:14;100405.00;;;16.40
45850;BMP180;10739;52.198;20.908;2023-06-14T03:16:43;100404.00;;;16.40
45850;BMP180;10739;52.198;20.908;2023-06-14T03:19:10;100412.00;;;16.40
45850;BMP180;10739;52.198;20.908;2023-06-14T03:21:37;100410.00;;;16.20
45850;BMP180;10739;52.198;20.908;2023-06-14T03:24:05;100400.00;;;16.30
45850;BMP180;10739;52.198;20.908;2023-06-14T03:26:31;100413.00;;;16.20
45850;BMP180;10739;52.198;20.908;2023-06-14T03:28:59;100411.00;;;16.20
45850;BMP180;10739;52.198;20.908;2023-06-14T03:31:25;100410.00;;;16.30
45850;BMP180;10739;52.198;20.908;2023-06-14T03:33:52;100413.00;;;16.30
45850;BMP180;10739;52.198;20.908;2023-06-14T03:36:18;100412.00;;;16.40
45850;BMP180;10739;52.198;20.908;2023-06-14T03:38:44;100407.00;;;16.40
45850;BMP180;10739;52.198;20.908;2023-06-14T03:41:11;100417.00;;;16.50
45850;BMP180;10739;52.198;20.908;2023-06-14T03:43:37;100420.00;;;16.50
45850;BMP180;10739;52.198;20.908;2023-06-14T03:46:03;100415.00;;;16.50
45850;BMP180;10739;52.198;20.908;2023-06-14T03:48:29;100422.00;;;16.50
45850;BMP180;10739;52.198;20.908;2023-06-14T03:50:56;100417.00;;;16.50
45850;BMP180;10739;52.198;20.908;2023-06-14T03:53:22;100411.00;;;16.50
45850;BMP180;10739;52.198;20.908;2023-06-14T03:55:50;100416.00;;;16.50
45850;BMP180;10739;52.198;20.908;2023-06-14T03:58:18;100425.00;;;16.50
45850;BMP180;10739;52.198;20.908;2023-06-14T04:00:45;100427.00;;;16.50
45850;BMP180;10739;52.198;20.908;2023-06-14T04:03:11;100423.00;;;16.60
45850;BMP180;10739;52.198;20.908;2023-06-14T04:05:39;100418.00;;;16.70
45850;BMP180;10739;52.198;20.908;2023-06-14T04:08:10;100422.00;;;16.80
45850;BMP180;10739;52.198;20.908;2023-06-14T04:10:36;100429.00;;;16.80
45850;BMP180;10739;52.198;20.908;2023-06-14T04:13:03;100426.00;;;16.80
45850;BMP180;10739;52.198;20.908;2023-06-14T04:15:30;100425.00;;;16.70
45850;BMP180;10739;52.198;20.908;2023-06-14T04:17:57;100436.00;;;16.80
45850;BMP180;10739;52.198;20.908;2023-06-14T04:20:24;100428.00;;;16.70
45850;BMP180;10739;52.198;20.908;2023-06-14T04:22:51;100427.00;;;16.70
45850;BMP180;10739;52.198;20.908;2023-06-14T04:25:18;100421.00;;;16.90
45850;BMP180;10739;52.198;20.908;2023-06-14T04:27:45;100432.00;;;16.90
45850;BMP180;10739;52.198;20.908;2023-06-14T04:30:13;100425.00;;;16.90
45850;BMP180;10739;52.198;20.908;2023-06-14T04:32:39;100424.00;;;16.90
45850;BMP180;10739;52.198;20.908;2023-06-14T04:35:07;100413.00;;;17.00
45850;BMP180;10739;52.198;20.908;2023-06-14T04:37:33;100422.00;;;17.00
45850;BMP180;10739;52.198;20.908;2023-06-14T04:40:00;100415.00;;;17.00
45850;BMP180;10739;52.198;20.908;2023-06-14T04:42:26;100416.00;;;16.90
45850;BMP180;10739;52.198;20.908;2023-06-14T04:44:57;100424.00;;;17.10
45850;BMP180;10739;52.198;20.908;2023-06-14T04:47:23;100420.00;;;17.30
45850;BMP180;10739;52.198;20.908;2023-06-14T04:49:56;100420.00;;;17.30
45850;BMP180;10739;52.198;20.908;2023-06-14T04:52:24;100427.00;;;17.40
45850;BMP180;10739;52.198;20.908;2023-06-14T04:54:52;100421.00;;;17.50
45850;BMP180;10739;52.198;20.908;2023-06-14T04:57:20;100418.00;;;17.40
45850;BMP180;10739;52.198;20.908;2023-06-14T04:59:48;100424.00;;;17.40
45850;BMP180;10739;52.198;20.908;2023-06-14T05:02:24;100421.00;;;17.40
45850;BMP180;10739;52.198;20.908;2023-06-14T05:04:51;100419.00;;;17.50
45850;BMP180;10739;52.198;20.908;2023-06-14T05:07:18;100425.00;;;17.50
45850;BMP180;10739;52.198;20.908;2023-06-14T05:09:45;100425.00;;;17.40
45850;BMP180;10739;52.198;20.908;2023-06-14T05:12:12;100423.00;;;17.40
45850;BMP180;10739;52.198;20.908;2023-06-14T05:14:38;100430.00;;;17.50
45850;BMP180;10739;52.198;20.908;2023-06-14T05:17:05;100425.00;;;17.60
45850;BMP180;10739;52.198;20.908;2023-06-14T05:19:31;100432.00;;;17.60
45850;BMP180;10739;52.198;20.908;2023-06-14T05:21:58;100428.00;;;17.60
45850;BMP180;10739;52.198;20.908;2023-06-14T05:24:24;100435.00;;;17.60
45850;BMP180;10739;52.198;20.908;2023-06-14T05:26:51;100429.00;;;17.70
45850;BMP180;10739;52.198;20.908;2023-06-14T05:29:17;100433.00;;;17.70
45850;BMP180;10739;52.198;20.908;2023-06-14T05:31:43;100430.00;;;17.70
45850;BMP180;10739;52.198;20.908;2023-06-14T05:34:10;100438.00;;;17.80
45850;BMP180;10739;52.198;20.908;2023-06-14T05:36:36;100439.00;;;17.80
45850;BMP180;10739;52.198;20.908;2023-06-14T05:39:03;100434.00;;;17.70
45850;BMP180;10739;52.198;20.908;2023-06-14T05:41:30;100431.00;;;17.60
45850;BMP180;10739;52.198;20.908;2023-06-14T05:43:57;100445.00;;;17.60
45850;BMP180;10739;52.198;20.908;2023-06-14T05:46:24;100439.00;;;17.80
45850;BMP180;10739;52.198;20.908;2023-06-14T05:48:52;100441.00;;;18.00
45850;BMP180;10739;52.198;20.908;2023-06-14T05:51:18;100449.00;;;17.90
45850;BMP180;10739;52.198;20.908;2023-06-14T05:53:49;100442.00;;;18.00
45850;BMP180;10739;52.198;20.908;2023-06-14T05:56:17;100442.00;;;18.00
45850;BMP180;10739;52.198;20.908;2023-06-14T05:58:45;100440.00;;;18.00
45850;BMP180;10739;52.198;20.908;2023-06-14T06:01:11;100448.00;;;18.10
45850;BMP180;10739;52.198;20.908;2023-06-14T06:03:37;100446.00;;;18.00
45850;BMP180;10739;52.198;20.908;2023-06-14T06:06:03;100440.00;;;18.20
45850;BMP180;10739;52.198;20.908;2023-06-14T06:08:30;100445.00;;;18.10
45850;BMP180;10739;52.198;20.908;2023-06-14T06:10:57;100439.00;;;18.10
45850;BMP180;10739;52.198;20.908;2023-06-14T06:13:23;100440.00;;;18.20
45850;BMP180;10739;52.198;20.908;2023-06-14T06:15:50;100438.00;;;18.20
45850;BMP180;10739;52.198;20.908;2023-06-14T06:18:16;100445.00;;;18.50
45850;BMP180;10739;52.198;20.908;2023-06-14T06:20:42;100441.00;;;18.70
45850;BMP180;10739;52.198;20.908;2023-06-14T06:23:10;100440.00;;;18.80
45850;BMP180;10739;52.198;20.908;2023-06-14T06:25:36;100437.00;;;19.00
45850;BMP180;10739;52.198;20.908;2023-06-14T06:28:03;100438.00;;;19.00
45850;BMP180;10739;52.198;20.908;2023-06-14T06:30:30;100439.00;;;18.70
45850;BMP180;10739;52.198;20.908;2023-06-14T06:32:57;100446.00;;;18.80
45850;BMP180;10739;52.198;20.908;2023-06-14T06:35:24;100443.00;;;19.00
45850;BMP180;10739;52.198;20.908;2023-06-14T06:37:50;100441.00;;;19.00
45850;BMP180;10739;52.198;20.908;2023-06-14T06:40:17;100440.00;;;19.00
45850;BMP180;10739;52.198;20.908;2023-06-14T06:42:43;100443.00;;;19.10
45850;BMP180;10739;52.198;20.908;2023-06-14T06:45:10;100449.00;;;19.20
45850;BMP180;10739;52.198;20.908;2023-06-14T06:47:36;100449.00;;;19.20
45850;BMP180;10739;52.198;20.908;2023-06-14T06:50:02;100442.00;;;19.30
45850;BMP180;10739;52.198;20.908;2023-06-14T06:52:29;100446.00;;;19.50
45850;BMP180;10739;52.198;20.908;2023-06-14T06:54:55;100453.00;;;19.40
45850;BMP180;10739;52.198;20.908;2023-06-14T06:57:23;100455.00;;;19.60
45850;BMP180;10739;52.198;20.908;2023-06-14T06:59:50;100438.00;;;19.50
45850;BMP180;10739;52.198;20.908;2023-06-14T07:02:16;100447.00;;;19.50
45850;BMP180;10739;52.198;20.908;2023-06-14T07:04:43;100445.00;;;19.50
45850;BMP180;10739;52.198;20.908;2023-06-14T07:07:09;100444.00;;;19.30
45850;BMP180;10739;52.198;20.908;2023-06-14T07:09:36;100457.00;;;19.30
45850;BMP180;10739;52.198;20.908;2023-06-14T07:12:02;100465.00;;;19.40
45850;BMP180;10739;52.198;20.908;2023-06-14T07:14:29;100466.00;;;19.40
45850;BMP180;10739;52.198;20.908;2023-06-14T07:16:56;100466.00;;;19.50
45850;BMP180;10739;52.198;20.908;2023-06-14T07:19:22;100469.00;;;19.50
45850;BMP180;10739;52.198;20.908;2023-06-14T07:21:48;100471.00;;;19.40
45850;BMP180;10739;52.198;20.908;2023-06-14T07:24:15;100462.00;;;19.60
45850;BMP180;10739;52.198;20.908;2023-06-14T07:26:41;100465.00;;;19.50
45850;BMP180;10739;52.198;20.908;2023-06-14T07:29:07;100470.00;;;19.70
45850;BMP180;10739;52.198;20.908;2023-06-14T07:31:33;100472.00;;;19.80
45850;BMP180;10739;52.198;20.908;2023-06-14T07:34:00;100471.00;;;19.90
45850;BMP180;10739;52.198;20.908;2023-06-14T07:36:26;100470.00;;;19.80
45850;BMP180;10739;52.198;20.908;2023-06-14T07:38:52;100479.00;;;19.90
45850;BMP180;10739;52.198;20.908;2023-06-14T07:41:18;100474.00;;;20.00
45850;BMP180;10739;52.198;20.908;2023-06-14T07:43:45;100476.00;;;20.20
45850;BMP180;10739;52.198;20.908;2023-06-14T07:46:11;100469.00;;;20.40
45850;BMP180;10739;52.198;20.908;2023-06-14T07:48:37;100474.00;;;20.10
45850;BMP180;10739;52.198;20.908;2023-06-14T07:51:04;100476.00;;;20.30
45850;BMP180;10739;52.198;20.908;2023-06-14T07:53:38;100477.00;;;20.40
45850;BMP180;10739;52.198;20.908;2023-06-14T07:56:05;100480.00;;;20.40
45850;BMP180;10739;52.198;20.908;2023-06-14T07:58:31;100482.00;;;20.60
45850;BMP180;10739;52.198;20.908;2023-06-14T08:00:57;100477.00;;;20.60
45850;BMP180;10739;52.198;20.908;2023-06-14T08:03:24;100478.00;;;20.40
45850;BMP180;10739;52.198;20.908;2023-06-14T08:05:50;100481.00;;;20.50
45850;BMP180;10739;52.198;20.908;2023-06-14T08:08:17;100484.00;;;20.60
45850;BMP180;10739;52.198;20.908;2023-06-14T08:10:44;100480.00;;;20.40
45850;BMP180;10739;52.198;20.908;2023-06-14T08:13:10;100481.00;;;20.30
45850;BMP180;10739;52.198;20.908;2023-06-14T08:15:36;100483.00;;;20.20
45850;BMP180;10739;52.198;20.908;2023-06-14T08:18:03;100481.00;;;20.30
45850;BMP180;10739;52.198;20.908;2023-06-14T08:20:29;100482.00;;;20.50
45850;BMP180;10739;52.198;20.908;2023-06-14T08:22:57;100488.00;;;20.60
45850;BMP180;10739;52.198;20.908;2023-06-14T08:25:24;100487.00;;;20.80
45850;BMP180;10739;52.198;20.908;2023-06-14T08:27:50;100490.00;;;20.70
45850;BMP180;10739;52.198;20.908;2023-06-14T08:30:16;100489.00;;;20.90
45850;BMP180;10739;52.198;20.908;2023-06-14T08:32:44;100493.00;;;20.90
45850;BMP180;10739;52.198;20.908;2023-06-14T08:35:10;100492.00;;;20.50
45850;BMP180;10739;52.198;20.908;2023-06-14T08:37:40;100494.00;;;20.60
45850;BMP180;10739;52.198;20.908;2023-06-14T08:40:23;100491.00;;;20.90
45850;BMP180;10739;52.198;20.908;2023-06-14T08:42:54;100478.00;;;21.00
45850;BMP180;10739;52.198;20.908;2023-06-14T08:45:24;100482.00;;;20.90
45850;BMP180;10739;52.198;20.908;2023-06-14T08:47:54;100482.00;;;21.20
45850;BMP180;10739;52.198;20.908;2023-06-14T08:50:25;100472.00;;;21.50
45850;BMP180;10739;52.198;20.908;2023-06-14T08:52:56;100466.00;;;21.70
45850;BMP180;10739;52.198;20.908;2023-06-14T08:55:23;100472.00;;;21.80
45850;BMP180;10739;52.198;20.908;2023-06-14T08:57:57;100469.00;;;21.90
45850;BMP180;10739;52.198;20.908;2023-06-14T09:00:28;100466.00;;;22.20
45850;BMP180;10739;52.198;20.908;2023-06-14T09:02:55;100467.00;;;22.20
45850;BMP180;10739;52.198;20.908;2023-06-14T09:05:25;100462.00;;;22.30
45850;BMP180;10739;52.198;20.908;2023-06-14T09:07:53;100462.00;;;22.30
45850;BMP180;10739;52.198;20.908;2023-06-14T09:10:22;100462.00;;;22.30
45850;BMP180;10739;52.198;20.908;2023-06-14T09:12:49;100464.00;;;22.10
45850;BMP180;10739;52.198;20.908;2023-06-14T09:15:15;100476.00;;;22.10
45850;BMP180;10739;52.198;20.908;2023-06-14T09:17:43;100476.00;;;22.10
45850;BMP180;10739;52.198;20.908;2023-06-14T09:20:12;100472.00;;;22.30
45850;BMP180;10739;52.198;20.908;2023-06-14T09:22:43;100476.00;;;22.40
45850;BMP180;10739;52.198;20.908;2023-06-14T09:25:10;100481.00;;;22.10
45850;BMP180;10739;52.198;20.908;2023-06-14T09:27:40;100471.00;;;22.20
45850;BMP180;10739;52.198;20.908;2023-06-14T09:30:11;100482.00;;;21.80
45850;BMP180;10739;52.198;20.908;2023-06-14T09:32:39;100484.00;;;21.90
45850;BMP180;10739;52.198;20.908;2023-06-14T09:35:07;100481.00;;;21.90
45850;BMP180;10739;52.198;20.908;2023-06-14T09:37:35;100480.00;;;21.90
45850;BMP180;10739;52.198;20.908;2023-06-14T09:40:05;100483.00;;;21.40
45850;BMP180;10739;52.198;20.908;2023-06-14T09:42:35;100487.00;;;21.00
45850;BMP180;10739;52.198;20.908;2023-06-14T09:45:04;100495.00;;;21.30
45850;BMP180;10739;52.198;20.908;2023-06-14T09:47:32;100489.00;;;21.40
45850;BMP180;10739;52.198;20.908;2023-06-14T09:49:59;100493.00;;;21.60
45850;BMP180;10739;52.198;20.908;2023-06-14T09:52:28;100492.00;;;21.60
45850;BMP180;10739;52.198;20.908;2023-06-14T09:54:59;100486.00;;;21.50
45850;BMP180;10739;52.198;20.908;2023-06-14T09:57:30;100491.00;;;21.50
45850;BMP180;10739;52.198;20.908;2023-06-14T10:00:02;100486.00;;;21.10
45850;BMP180;10739;52.198;20.908;2023-06-14T10:02:36;100476.00;;;21.20
45850;BMP180;10739;52.198;20.908;2023-06-14T10:05:07;100481.00;;;21.20
45850;BMP180;10739;52.198;20.908;2023-06-14T10:07:50;100481.00;;;21.30
45850;BMP180;10739;52.198;20.908;2023-06-14T10:10:18;100476.00;;;21.40
45850;BMP180;10739;52.198;20.908;2023-06-14T10:12:45;100469.00;;;21.50
45850;BMP180;10739;52.198;20.908;2023-06-14T10:18:43;100470.00;;;21.80
45850;BMP180;10739;52.198;20.908;2023-06-14T10:21:26;100464.00;;;21.80
45850;BMP180;10739;52.198;20.908;2023-06-14T10:24:01;100469.00;;;22.10
45850;BMP180;10739;52.198;20.908;2023-06-14T10:26:29;100468.00;;;22.20
45850;BMP180;10739;52.198;20.908;2023-06-14T10:29:09;100476.00;;;22.80
45850;BMP180;10739;52.198;20.908;2023-06-14T10:31:50;100477.00;;;22.80
45850;BMP180;10739;52.198;20.908;2023-06-14T10:34:25;100473.00;;;22.60
45850;BMP180;10739;52.198;20.908;2023-06-14T10:37:03;100470.00;;;23.40
45850;BMP180;10739;52.198;20.908;2023-06-14T10:39:41;100461.00;;;23.90
45850;BMP180;10739;52.198;20.908;2023-06-14T10:42:08;100462.00;;;23.80
45850;BMP180;10739;52.198;20.908;2023-06-14T10:44:58;100450.00;;;23.80
45850;BMP180;10739;52.198;20.908;2023-06-14T10:47:32;100458.00;;;24.60
45850;BMP180;10739;52.198;20.908;2023-06-14T10:52:29;100458.00;;;24.20
45850;BMP180;10739;52.198;20.908;2023-06-14T10:55:12;100463.00;;;24.50
45850;BMP180;10739;52.198;20.908;2023-06-14T10:57:50;100465.00;;;24.60
45850;BMP180;10739;52.198;20.908;2023-06-14T11:00:28;100461.00;;;24.10
45850;BMP180;10739;52.198;20.908;2023-06-14T11:03:54;100448.00;;;24.50
45850;BMP180;10739;52.198;20.908;2023-06-14T11:06:25;100451.00;;;25.30
45850;BMP180;10739;52.198;20.908;2023-06-14T11:09:13;100452.00;;;25.40
45850;BMP180;10739;52.198;20.908;2023-06-14T11:11:47;100455.00;;;25.30
45850;BMP180;10739;52.198;20.908;2023-06-14T11:14:14;100452.00;;;24.30
45850;BMP180;10739;52.198;20.908;2023-06-14T11:16:41;100453.00;;;24.60
45850;BMP180;10739;52.198;20.908;2023-06-14T11:19:07;100447.00;;;25.20
45850;BMP180;10739;52.198;20.908;2023-06-14T11:21:34;100455.00;;;25.60
45850;BMP180;10739;52.198;20.908;2023-06-14T11:24:12;100442.00;;;26.10
45850;BMP180;10739;52.198;20.908;2023-06-14T11:26:42;100449.00;;;25.70
45850;BMP180;10739;52.198;20.908;2023-06-14T11:29:09;100448.00;;;25.40
45850;BMP180;10739;52.198;20.908;2023-06-14T11:31:36;100458.00;;;25.20
45850;BMP180;10739;52.198;20.908;2023-06-14T11:34:02;100451.00;;;24.20
45850;BMP180;10739;52.198;20.908;2023-06-14T11:36:33;100457.00;;;23.90
45850;BMP180;10739;52.198;20.908;2023-06-14T11:39:07;100456.00;;;23.80
45850;BMP180;10739;52.198;20.908;2023-06-14T11:41:45;100466.00;;;23.60
45850;BMP180;10739;52.198;20.908;2023-06-14T11:44:12;100457.00;;;23.50
45850;BMP180;10739;52.198;20.908;2023-06-14T11:46:39;100456.00;;;23.70
45850;BMP180;10739;52.198;20.908;2023-06-14T11:49:07;100459.00;;;23.40
45850;BMP180;10739;52.198;20.908;2023-06-14T11:51:36;100469.00;;;23.30
45850;BMP180;10739;52.198;20.908;2023-06-14T11:54:05;100457.00;;;23.60
45850;BMP180;10739;52.198;20.908;2023-06-14T11:56:32;100458.00;;;23.90
45850;BMP180;10739;52.198;20.908;2023-06-14T11:58:59;100461.00;;;24.10
45850;BMP180;10739;52.198;20.908;2023-06-14T12:01:26;100465.00;;;23.80
45850;BMP180;10739;52.198;20.908;2023-06-14T12:03:54;100457.00;;;24.20
45850;BMP180;10739;52.198;20.908;2023-06-14T12:06:30;100452.00;;;25.10
45850;BMP180;10739;52.198;20.908;2023-06-14T12:08:59;100440.00;;;25.80
45850;BMP180;10739;52.198;20.908;2023-06-14T12:11:35;100450.00;;;26.30
45850;BMP180;10739;52.198;20.908;2023-06-14T12:14:08;100441.00;;;26.70
45850;BMP180;10739;52.198;20.908;2023-06-14T12:16:38;100438.00;;;27.30
45850;BMP180;10739;52.198;20.908;2023-06-14T12:19:17;100446.00;;;27.80
45850;BMP180;10739;52.198;20.908;2023-06-14T12:21:47;100440.00;;;27.00
45850;BMP180;10739;52.198;20.908;2023-06-14T12:24:14;100441.00;;;26.70
45850;BMP180;10739;52.198;20.908;2023-06-14T12:26:41;100445.00;;;26.00
45850;BMP180;10739;52.198;20.908;2023-06-14T12:29:08;100444.00;;;25.40
45850;BMP180;10739;52.198;20.908;2023-06-14T12:31:37;100444.00;;;25.30
45850;BMP180;10739;52.198;20.908;2023-06-14T12:34:03;100442.00;;;25.50
45850;BMP180;10739;52.198;20.908;2023-06-14T12:36:30;100445.00;;;25.80
45850;BMP180;10739;52.198;20.908;2023-06-14T12:38:57;100439.00;;;25.80
45850;BMP180;10739;52.198;20.908;2023-06-14T12:41:23;100451.00;;;25.80
45850;BMP180;10739;52.198;20.908;2023-06-14T12:43:50;100446.00;;;25.80
45850;BMP180;10739;52.198;20.908;2023-06-14T12:46:17;100442.00;;;26.20
45850;BMP180;10739;52.198;20.908;2023-06-14T12:48:43;100442.00;;;26.70
45850;BMP180;10739;52.198;20.908;2023-06-14T12:51:09;100435.00;;;27.80
45850;BMP180;10739;52.198;20.908;2023-06-14T12:53:35;100433.00;;;28.30
45850;BMP180;10739;52.198;20.908;2023-06-14T12:56:02;100437.00;;;28.20
45850;BMP180;10739;52.198;20.908;2023-06-14T12:58:28;100422.00;;;28.20
45850;BMP180;10739;52.198;20.908;2023-06-14T13:00:54;100425.00;;;28.70
45850;BMP180;10739;52.198;20.908;2023-06-14T13:03:21;100424.00;;;29.20
45850;BMP180;10739;52.198;20.908;2023-06-14T13:05:47;100424.00;;;29.20
45850;BMP180;10739;52.198;20.908;2023-06-14T13:08:13;100423.00;;;29.30
45850;BMP180;10739;52.198;20.908;2023-06-14T13:10:40;100434.00;;;28.00
45850;BMP180;10739;52.198;20.908;2023-06-14T13:13:06;100429.00;;;27.40
45850;BMP180;10739;52.198;20.908;2023-06-14T13:15:33;100428.00;;;26.90
45850;BMP180;10739;52.198;20.908;2023-06-14T13:17:59;100422.00;;;26.10
45850;BMP180;10739;52.198;20.908;2023-06-14T13:20:26;100426.00;;;26.40
45850;BMP180;10739;52.198;20.908;2023-06-14T13:22:53;100435.00;;;26.10
45850;BMP180;10739;52.198;20.908;2023-06-14T13:25:19;100426.00;;;27.10
45850;BMP180;10739;52.198;20.908;2023-06-14T13:27:45;100429.00;;;27.50
45850;BMP180;10739;52.198;20.908;2023-06-14T13:30:12;100427.00;;;27.90
45850;BMP180;10739;52.198;20.908;2023-06-14T13:32:38;100424.00;;;27.70
45850;BMP180;10739;52.198;20.908;2023-06-14T13:35:05;100423.00;;;27.40
45850;BMP180;10739;52.198;20.908;2023-06-14T13:37:31;100432.00;;;27.20
45850;BMP180;10739;52.198;20.908;2023-06-14T13:39:57;100421.00;;;27.80
45850;BMP180;10739;52.198;20.908;2023-06-14T13:42:24;100437.00;;;28.00
45850;BMP180;10739;52.198;20.908;2023-06-14T13:44:50;100419.00;;;26.70
45850;BMP180;10739;52.198;20.908;2023-06-14T13:47:17;100412.00;;;26.30
45850;BMP180;10739;52.198;20.908;2023-06-14T13:49:44;100415.00;;;26.40
45850;BMP180;10739;52.198;20.908;2023-06-14T13:52:10;100420.00;;;27.50
45850;BMP180;10739;52.198;20.908;2023-06-14T13:54:37;100411.00;;;28.60
45850;BMP180;10739;52.198;20.908;2023-06-14T13:57:04;100413.00;;;28.90
45850;BMP180;10739;52.198;20.908;2023-06-14T13:59:30;100406.00;;;28.40